• Join FlightAware (Why Join?)
  • Login
  • US Flag 
04:47AM EST


 

Airport Tracker/Info


-or-


 

Live Flight TrackerFlight Track Log ✈ SWA962 ✈ 14-Jun-2013 ✈ KGSP - KBWI

Flight Track Log - Related Links

Times and Time Zones

All times are in EDT time to prevent confusion due to time zone crossing. See the SWA962 flight status page for this flight to view local times or setup timezone preferences in your user account.

Time Position Orientation Groundspeed Altitude Reporting Facility
EDT Latitude Longitude Course Direction KTS MPH feet Rate Location/Type
10:45PM 34.9806 -82.0614 64° Northeast 256 295 8,300  Level Atlanta Center
10:46PM 35.0164 -81.9719 64° Northeast 276 318 12,000 3,600 Climbing Atlanta Center
10:47PM 35.0953 -81.9344 21° North 280 322 15,600 2,100 Climbing Atlanta Center
10:48PM 35.1892 -81.9397 357° North 316 364 16,300 2,100 Climbing Atlanta Center
10:49PM 35.2811 -81.9422 359° North 328 377 19,800 3,300 Climbing Atlanta Center
10:50PM 35.3675 -81.8714 34° Northeast 334 384 23,000 2,940 Climbing Atlanta Center
10:51PM 35.4131 -81.7428 66° East 344 396 25,700 1,500 Climbing Atlanta Center
10:52PM 35.4564 -81.6167 67° East 385 443 26,000 1,080 Climbing Atlanta Center
10:53PM 35.5042 -81.4903 65° Northeast 406 467 27,900 2,040 Climbing Atlanta Center
10:54PM 35.5514 -81.3586 66° East 406 467 30,100 2,100 Climbing Atlanta Center
10:55PM 35.6003 -81.2114 68° East 435 501 32,100 2,100 Climbing Atlanta Center
10:56PM 35.6514 -81.0819 64° Northeast 451 519 34,400 2,220 Climbing Atlanta Center
10:57PM 35.6983 -80.9522 66° East 435 501 36,600 1,860 Climbing Atlanta Center
10:58PM 35.7508 -80.8044 66° East 435 501 38,200 1,140 Climbing Atlanta Center
11:00PM 35.8664 -80.4772 66° East 455 524 40,400 840 Climbing Washington Center
11:01PM 35.9133 -80.3469 66° East 455 524 41,000 300 Climbing Washington Center
11:02PM 35.9628 -80.2036 67° East 455 524 41,000  Level Washington Center
11:03PM 36.0161 -80.0656 64° Northeast 455 524 41,000  Level Washington Center
11:04PM 36.0733 -79.9300 62° Northeast 443 510 41,000  Level Washington Center
11:05PM 36.1444 -79.8053 55° Northeast 432 497 41,000 -240 Level Washington Center
11:06PM 36.2222 -79.6678 55° Northeast 446 513 40,600 -660 Descending Washington Center
11:07PM 36.2844 -79.5550 56° Northeast 440 506 39,700 -840 Descending Washington Center
11:08PM 36.3553 -79.4347 54° Northeast 434 499 39,000 -840 Descending Washington Center
11:09PM 36.4219 -79.3064 57° Northeast 434 499 38,100 -960 Descending Washington Center
11:10PM 36.4881 -79.1856 56° Northeast 434 499 37,200 -1,740 Descending Washington Center
11:11PM 36.5583 -79.0725 52° Northeast 422 486 34,700 -2,580 Descending Washington Center
11:12PM 36.6264 -78.9514 55° Northeast 417 480 32,100 -2,760 Descending Washington Center
11:13PM 36.6969 -78.8144 57° Northeast 422 486 29,300 -1,560 Descending Washington Center
11:14PM 36.7606 -78.6978 56° Northeast 417 480 29,000 -240 Descending Washington Center
11:15PM 36.8361 -78.6022 45° Northeast 398 458 28,900 -420 Descending Washington Center
11:16PM 36.9169 -78.5300 36° Northeast 379 436 28,200 -660 Descending Washington Center
11:17PM 37.0044 -78.4475 37° Northeast 384 442 27,600 -720 Descending Washington Center
11:18PM 37.0919 -78.3700 35° Northeast 384 442 26,800 -1,020 Descending Washington Center
11:19PM 37.1836 -78.2822 37° Northeast 384 442 25,600 -1,140 Descending Washington Center
11:20PM 37.2686 -78.2069 35° Northeast 379 436 24,600 -960 Descending Washington Center
11:21PM 37.3392 -78.1386 38° Northeast 369 425 23,700 -840 Descending Washington Center
11:22PM 37.4200 -78.0631 37° Northeast 364 419 23,000 -360 Descending Washington Center
11:23PM 37.4967 -77.9869 38° Northeast 358 412 23,000  Level Washington Center
11:24PM 37.5753 -77.9133 37° Northeast 352 405 23,000  Level Washington Center
11:25PM 37.6558 -77.8397 36° Northeast 352 405 23,000  Level Washington Center
11:26PM 37.7344 -77.7633 38° Northeast 352 405 23,000  Level Washington Center
11:27PM 37.8128 -77.6894 37° Northeast 352 405 23,000  Level Washington Center
11:28PM 37.8892 -77.6125 38° Northeast 347 399 23,000  Level Washington Center
11:29PM 37.9719 -77.5358 36° Northeast 352 405 23,000  Level Washington Center
11:30PM 38.0567 -77.4589 36° Northeast 352 405 23,000  Level Washington Center
11:31PM 38.1328 -77.3814 39° Northeast 347 399 23,000 -1,380 Level Washington Center
11:32PM 38.2111 -77.3067 37° Northeast 347 399 20,300 -2,580 Descending Washington Center
11:33PM 38.2872 -77.2317 38° Northeast 347 399 17,900 -2,520 Descending Washington Center
11:34PM 38.3611 -77.1567 39° Northeast 347 399 15,400 -1,620 Descending Washington Center
11:35PM 38.4289 -77.0811 41° Northeast 335 386 14,800 -1,440 Descending Washington Center
11:36PM 38.4944 -77.0028 43° Northeast 323 372 12,500 -1,440 Descending Washington Center
11:37PM 38.5578 -76.9244 44° Northeast 312 359 12,000 -1,080 Descending Washington Center
11:38PM 38.6211 -76.8486 43° Northeast 312 359 10,400 -1,200 Descending Washington Center
11:39PM 38.6761 -76.7803 44° Northeast 299 344 9,700 -1,080 Descending Washington Center
11:41PM 38.7500 -76.6333 57° Northeast 271 312 7,500 -1,380 Descending Potomac TRACON
11:42PM 38.7833 -76.5667 57° Northeast 271 312 6,100 -1,200 Descending Potomac TRACON
11:43PM 38.8500 -76.5333 21° North 255 293 5,100 -1,140 Descending Potomac TRACON
11:44PM 38.9167 -76.5500 349° North 247 284 3,900 -1,200 Descending Potomac TRACON
11:45PM 38.9833 -76.5667 349° North 227 261 2,900 -1,020 Descending Potomac TRACON
11:46PM 39.0333 -76.5833 345° North 215 247 1,800 -600 Descending Potomac TRACON
11:47PM 39.1000 -76.6167 339° North 166 191 1,600 -420 Descending Potomac TRACON
11:48PM 39.1333 -76.6333 339° North 115 132 1,000 -600 Descending Potomac TRACON
11:49PM 39.1500 -76.6500 322° Northwest 114 131 400 -600 Descending Potomac TRACON
11:51PM 39.1667 -76.6667 339° North  Level FlightAware Approximate
11:58PM 39.1754 -76.6683 339° North  Level Estimated
11:59PM 39.1754 -76.6683 339° North  Level Estimated
12:00AM 39.1754 -76.6683 339° North  Level Estimated
12:01AM 39.1754 -76.6683 339° North  Level Estimated